Berta — V2BQ6 — position and weather

sailwx.info

Track history (hours):
 
Tides and Currents Weather Stations Pressure Air Temp Water Temp Dewpoint Dewpoint Depression Visibility Wind Speed Wind Dir Waves Ship Positions

Berta

Last reported at 2014-Oct-02 05:33 UTC. Time now 2014-Oct-02 16:41 UTC.
Position N 58°19' E 005°26'.

Length 107 m; draft 6.7 m.

Type: Cargo ship. MMSI: 304586000.

Date/timePositionNaut miles runAvg speedWind from/ knotsBaromVisibWave heightAir tempDewpointWater temp
2014-Oct-02 05:33N 58°19' E 005°26'16914.1
2014-Oct-01 17:33N 55°37' E 006°52'1514.8
2014-Oct-01 16:33N 55°23' E 006°59'1514.8
2014-Oct-01 15:33N 55°09' E 007°06'1514.5
2014-Oct-01 14:33N 54°55' E 007°13'1414.4
2014-Oct-01 13:33N 54°41' E 007°20'1414.2
2014-Oct-01 12:33N 54°27' E 007°27'1413.9
2014-Oct-01 11:33N 54°14' E 007°34'1313.2
2014-Oct-01 10:33N 54°07' E 007°53'1413.9
2014-Oct-01 09:33N 54°00' E 008°14'1616.1
2014-Oct-01 08:33N 53°56' E 008°40'1414.0
2014-Oct-01 07:33N 53°52' E 009°03'1212.0
2014-Oct-01 06:33N 53°48' E 009°22'1212.5
2014-Oct-01 05:33N 53°38' E 009°32'1110.5
2014-Oct-01 04:33N 53°33' E 009°49'4 3.6
2014-Oct-01 03:33N 53°32' E 009°55'0 0.0
2014-Oct-01 02:33N 53°32' E 009°55'0 0.0
2014-Oct-01 01:33N 53°32' E 009°55'0 0.0
2014-Oct-01 00:33N 53°32' E 009°55'0 0.0
2014-Sep-30 23:33N 53°32' E 009°55'0 0.0
2014-Sep-30 22:33N 53°32' E 009°55'0 0.3
2014-Sep-30 21:34N 53°32' E 009°54'2 2.3
2014-Sep-30 20:34N 53°31' E 009°56'0 0.4
2014-Sep-30 19:34N 53°30' E 009°56'0 0.0
2014-Sep-30 18:34N 53°30' E 009°56'0 0.0
2014-Sep-30 17:33N 53°30' E 009°56'0 0.0
2014-Sep-30 16:33N 53°30' E 009°56'0 0.0
2014-Sep-30 15:34N 53°30' E 009°56'0 0.0
2014-Sep-30 14:33N 53°30' E 009°56'0 0.0
2014-Sep-30 13:33N 53°30' E 009°56'0 0.0
2014-Sep-30 12:34N 53°30' E 009°56'0 0.0
2014-Sep-30 11:33N 53°30' E 009°56'3 3.5
2014-Sep-30 10:34N 53°33' E 009°52'8 8.3
2014-Sep-30 09:33N 53°34' E 009°38'9 8.6
2014-Sep-30 08:33N 53°41' E 009°30'10 9.7
2014-Sep-30 07:33N 53°50' E 009°21'9 9.2
2014-Sep-30 06:34N 53°53' E 009°07'1211.5
2014-Sep-30 05:33N 53°50' E 008°47'1111.5
2014-Sep-30 04:33N 53°58' E 008°33'1312.6
2014-Sep-30 03:34N 53°60' E 008°12'1010.2
2014-Sep-30 02:33N 54°03' E 007°55'1111.3
2014-Sep-30 01:33N 54°08' E 007°39'1111.0
2014-Sep-30 00:34N 54°18' E 007°28'1211.9
2014-Sep-29 23:33N 54°29' E 007°23'1212.0
2014-Sep-29 22:33N 54°40' E 007°17'1211.9
2014-Sep-29 21:33N 54°52' E 007°11'1211.7
2014-Sep-29 20:33N 55°03' E 007°05'1211.9
2014-Sep-29 19:33N 55°15' E 006°59'1212.0
2014-Sep-29 18:33N 55°26' E 006°53'1211.6
2014-Sep-29 17:33N 55°37' E 006°47'1111.1
2014-Sep-29 16:34N 55°48' E 006°41'13813.2
2014-Sep-29 06:06N 58°00' E 005°29'712.8
2014-Sep-29 05:32N 58°07' E 005°25'1312.7
2014-Sep-29 04:33N 58°18' E 005°14'  
2014-Sep-26 21:25N 63°03' E 007°12'8 7.9
2014-Sep-26 20:26N 63°05' E 007°29'13 0.4
2014-Sep-25 13:16N 63°06' E 007°01'29112.3
2014-Sep-24 13:31N 58°18' E 005°26'17314.5
2014-Sep-24 01:33N 55°32' E 006°55'1514.9
2014-Sep-24 00:33N 55°18' E 007°02'1514.8
2014-Sep-23 23:33N 55°03' E 007°09'1514.6
2014-Sep-23 22:33N 54°49' E 007°16'1414.3
2014-Sep-23 21:33N 54°36' E 007°23'1413.9
2014-Sep-23 20:33N 54°22' E 007°30'1313.0
2014-Sep-23 19:33N 54°11' E 007°42'1312.8
2014-Sep-23 18:33N 54°04' E 007°59'1313.2
2014-Sep-23 17:33N 53°60' E 008°21'1515.2
2014-Sep-23 16:34N 53°53' E 008°43'1514.5
2014-Sep-23 15:33N 53°53' E 009°08'1311.8
2014-Sep-23 14:29N 53°45' E 009°25'1212.6
2014-Sep-23 13:33N 53°36' E 009°36'1010.4
2014-Sep-23 12:33N 53°33' E 009°53'2 1.7
2014-Sep-23 11:33N 53°32' E 009°55'0 0.0
2014-Sep-23 10:33N 53°32' E 009°55'0 0.0
2014-Sep-23 09:33N 53°32' E 009°55'0 0.0
2014-Sep-23 08:33N 53°32' E 009°55'0 0.0
2014-Sep-23 07:33N 53°32' E 009°55'0 0.0
2014-Sep-23 06:33N 53°32' E 009°55'1 0.6
2014-Sep-23 05:33N 53°32' E 009°55'0 0.0
2014-Sep-23 04:33N 53°32' E 009°54'0 0.0
2014-Sep-23 03:33N 53°32' E 009°54'0 0.0
2014-Sep-23 02:33N 53°32' E 009°54'0 0.0
2014-Sep-23 01:33N 53°32' E 009°54'0 0.0
2014-Sep-23 00:33N 53°32' E 009°54'1 0.6
2014-Sep-22 23:33N 53°33' E 009°54'2 2.2
2014-Sep-22 22:33N 53°31' E 009°56'0 0.0
2014-Sep-22 21:33N 53°31' E 009°56'0 0.0
2014-Sep-22 20:33N 53°31' E 009°56'0 0.0
2014-Sep-22 19:33N 53°31' E 009°56'0 0.0
2014-Sep-22 18:33N 53°31' E 009°56'0 0.0
2014-Sep-22 17:33N 53°31' E 009°56'0 0.0
2014-Sep-22 16:33N 53°31' E 009°56'0 0.0
2014-Sep-22 15:33N 53°31' E 009°56'0 0.0
2014-Sep-22 14:33N 53°31' E 009°56'0 0.0
2014-Sep-22 13:33N 53°31' E 009°56'0 0.0
2014-Sep-22 12:33N 53°31' E 009°56'0 0.0
2014-Sep-22 11:33N 53°31' E 009°56'0 0.0
2014-Sep-22 10:33N 53°31' E 009°56'5 4.7
2014-Sep-22 09:33N 53°33' E 009°49'1211.5
2014-Sep-22 08:33N 53°38' E 009°32'1211.7
2014-Sep-22 07:33N 53°48' E 009°22'1010.3
2014-Sep-22 06:32N 53°53' E 009°06'1010.4
2014-Sep-22 05:33N 53°50' E 008°50'  
Track history (hours):
 
Tides and Currents Weather Stations Pressure Air Temp Water Temp Dewpoint Dewpoint Depression Visibility Wind Speed Wind Dir Waves Ship Positions

Berta

Last reported at 2014-Oct-02 05:33 UTC. Time now 2014-Oct-02 16:41 UTC.
Position N 58°19' E 005°26'.

Length 107 m; draft 6.7 m.

Type: Cargo ship. MMSI: 304586000.

Date/timePositionNaut miles runAvg speedWind from/ knotsBaromVisibWave heightAir tempDewpointWater temp
2014-Oct-02 05:33N 58°19' E 005°26'16914.1
2014-Oct-01 17:33N 55°37' E 006°52'1514.8
2014-Oct-01 16:33N 55°23' E 006°59'1514.8
2014-Oct-01 15:33N 55°09' E 007°06'1514.5
2014-Oct-01 14:33N 54°55' E 007°13'1414.4
2014-Oct-01 13:33N 54°41' E 007°20'1414.2
2014-Oct-01 12:33N 54°27' E 007°27'1413.9
2014-Oct-01 11:33N 54°14' E 007°34'1313.2
2014-Oct-01 10:33N 54°07' E 007°53'1413.9
2014-Oct-01 09:33N 54°00' E 008°14'1616.1
2014-Oct-01 08:33N 53°56' E 008°40'1414.0
2014-Oct-01 07:33N 53°52' E 009°03'1212.0
2014-Oct-01 06:33N 53°48' E 009°22'1212.5
2014-Oct-01 05:33N 53°38' E 009°32'1110.5
2014-Oct-01 04:33N 53°33' E 009°49'4 3.6
2014-Oct-01 03:33N 53°32' E 009°55'0 0.0
2014-Oct-01 02:33N 53°32' E 009°55'0 0.0
2014-Oct-01 01:33N 53°32' E 009°55'0 0.0
2014-Oct-01 00:33N 53°32' E 009°55'0 0.0
2014-Sep-30 23:33N 53°32' E 009°55'0 0.0
2014-Sep-30 22:33N 53°32' E 009°55'0 0.3
2014-Sep-30 21:34N 53°32' E 009°54'2 2.3
2014-Sep-30 20:34N 53°31' E 009°56'0 0.4
2014-Sep-30 19:34N 53°30' E 009°56'0 0.0
2014-Sep-30 18:34N 53°30' E 009°56'0 0.0
2014-Sep-30 17:33N 53°30' E 009°56'0 0.0
2014-Sep-30 16:33N 53°30' E 009°56'0 0.0
2014-Sep-30 15:34N 53°30' E 009°56'0 0.0
2014-Sep-30 14:33N 53°30' E 009°56'0 0.0
2014-Sep-30 13:33N 53°30' E 009°56'0 0.0
2014-Sep-30 12:34N 53°30' E 009°56'0 0.0
2014-Sep-30 11:33N 53°30' E 009°56'3 3.5
2014-Sep-30 10:34N 53°33' E 009°52'8 8.3
2014-Sep-30 09:33N 53°34' E 009°38'9 8.6
2014-Sep-30 08:33N 53°41' E 009°30'10 9.7
2014-Sep-30 07:33N 53°50' E 009°21'9 9.2
2014-Sep-30 06:34N 53°53' E 009°07'1211.5
2014-Sep-30 05:33N 53°50' E 008°47'1111.5
2014-Sep-30 04:33N 53°58' E 008°33'1312.6
2014-Sep-30 03:34N 53°60' E 008°12'1010.2
2014-Sep-30 02:33N 54°03' E 007°55'1111.3
2014-Sep-30 01:33N 54°08' E 007°39'1111.0
2014-Sep-30 00:34N 54°18' E 007°28'1211.9
2014-Sep-29 23:33N 54°29' E 007°23'1212.0
2014-Sep-29 22:33N 54°40' E 007°17'1211.9
2014-Sep-29 21:33N 54°52' E 007°11'1211.7
2014-Sep-29 20:33N 55°03' E 007°05'1211.9
2014-Sep-29 19:33N 55°15' E 006°59'1212.0
2014-Sep-29 18:33N 55°26' E 006°53'1211.6
2014-Sep-29 17:33N 55°37' E 006°47'1111.1
2014-Sep-29 16:34N 55°48' E 006°41'13813.2
2014-Sep-29 06:06N 58°00' E 005°29'712.8
2014-Sep-29 05:32N 58°07' E 005°25'1312.7
2014-Sep-29 04:33N 58°18' E 005°14'  
2014-Sep-26 21:25N 63°03' E 007°12'8 7.9
2014-Sep-26 20:26N 63°05' E 007°29'13 0.4
2014-Sep-25 13:16N 63°06' E 007°01'29112.3
2014-Sep-24 13:31N 58°18' E 005°26'17314.5
2014-Sep-24 01:33N 55°32' E 006°55'1514.9
2014-Sep-24 00:33N 55°18' E 007°02'1514.8
2014-Sep-23 23:33N 55°03' E 007°09'1514.6
2014-Sep-23 22:33N 54°49' E 007°16'1414.3
2014-Sep-23 21:33N 54°36' E 007°23'1413.9
2014-Sep-23 20:33N 54°22' E 007°30'1313.0
2014-Sep-23 19:33N 54°11' E 007°42'1312.8
2014-Sep-23 18:33N 54°04' E 007°59'1313.2
2014-Sep-23 17:33N 53°60' E 008°21'1515.2
2014-Sep-23 16:34N 53°53' E 008°43'1514.5
2014-Sep-23 15:33N 53°53' E 009°08'1311.8
2014-Sep-23 14:29N 53°45' E 009°25'1212.6
2014-Sep-23 13:33N 53°36' E 009°36'1010.4
2014-Sep-23 12:33N 53°33' E 009°53'2 1.7
2014-Sep-23 11:33N 53°32' E 009°55'0 0.0
2014-Sep-23 10:33N 53°32' E 009°55'0 0.0
2014-Sep-23 09:33N 53°32' E 009°55'0 0.0
2014-Sep-23 08:33N 53°32' E 009°55'0 0.0
2014-Sep-23 07:33N 53°32' E 009°55'0 0.0
2014-Sep-23 06:33N 53°32' E 009°55'1 0.6
2014-Sep-23 05:33N 53°32' E 009°55'0 0.0
2014-Sep-23 04:33N 53°32' E 009°54'0 0.0
2014-Sep-23 03:33N 53°32' E 009°54'0 0.0
2014-Sep-23 02:33N 53°32' E 009°54'0 0.0
2014-Sep-23 01:33N 53°32' E 009°54'0 0.0
2014-Sep-23 00:33N 53°32' E 009°54'1 0.6
2014-Sep-22 23:33N 53°33' E 009°54'2 2.2
2014-Sep-22 22:33N 53°31' E 009°56'0 0.0
2014-Sep-22 21:33N 53°31' E 009°56'0 0.0
2014-Sep-22 20:33N 53°31' E 009°56'0 0.0
2014-Sep-22 19:33N 53°31' E 009°56'0 0.0
2014-Sep-22 18:33N 53°31' E 009°56'0 0.0
2014-Sep-22 17:33N 53°31' E 009°56'0 0.0
2014-Sep-22 16:33N 53°31' E 009°56'0 0.0
2014-Sep-22 15:33N 53°31' E 009°56'0 0.0
2014-Sep-22 14:33N 53°31' E 009°56'0 0.0
2014-Sep-22 13:33N 53°31' E 009°56'0 0.0
2014-Sep-22 12:33N 53°31' E 009°56'0 0.0
2014-Sep-22 11:33N 53°31' E 009°56'0 0.0
2014-Sep-22 10:33N 53°31' E 009°56'5 4.7
2014-Sep-22 09:33N 53°33' E 009°49'1211.5
2014-Sep-22 08:33N 53°38' E 009°32'1211.7
2014-Sep-22 07:33N 53°48' E 009°22'1010.3
2014-Sep-22 06:32N 53°53' E 009°06'1010.4
2014-Sep-22 05:33N 53°50' E 008°50'  

Dump ship's entire track history